x

East Gulf - 208 Mn West Of Naples, Fl (42003) Wave Buoy

3:50pm - Mon 8th Feb 2016 All times are EST. -5 hours from GMT.

  • Sig Wave height 4.3ft
  • Swell Direction
  • Peak Period 5s
  • Average Period 4s
  • Wind
    25mph, 29mph gusts
  • Sea Temp 79°f
  • Air Temp 70°f
  • Sea Pressure 1016.7mb
  • East Gulf - 208 Mn West Of Naples, Fl
  • East Gulf - 208 Mn West Of Naples, Fl

More Historic Weather Station data

Upgrade to MSW Pro to gain access to the past 30 days of data for over 8000 Wavebouys and Weather Stations around the globe.

Join Pro

Comparision Forecast

View Surf forecast
   
Mon 02/08 3:50pm 4.5ft 5s 4s 25 29 mph 1016.7mb 79f 70f
2:50pm 4ft 5s 4s 22 27 mph 1017.3mb 79f 69f
1:50pm 4.5ft 5s 4s 20 25 mph 1018.2mb 79f 69f
12:50pm 4ft 8s 4s 18 25 mph 1019.6mb 79f 68f
11:50am 4.5ft 8s 4s 20 25 mph 1020.6mb 79f 68f
10:50am 4ft 8s 5s 18 22 mph 1021.4mb 79f 67f
9:50am 4.5ft 8s 5s 16 22 mph 1021.2mb 79f 67f
8:50am 4.5ft 8s 5s 16 20 mph 1020.8mb 79f 67f
7:50am 4.5ft 7s 5s 16 20 mph 1020.4mb 79f 67f
6:50am 4.5ft 9s 6s 13 18 mph 1019.9mb 79f 66f
5:50am 4.5ft 7s 6s 16 22 mph 1019.4mb 79f 66f
4:50am 4.5ft 9s 6s 16 20 mph 1019.2mb 79f 65f
3:50am 5ft 7s 6s 13 18 mph 1019.3mb 79f 65f
2:50am 5ft 7s 7s 13 16 mph 1019.4mb 79f 65f
1:50am 5ft 8s 6s 11 16 mph 1019.8mb 79f 64f
12:50am 4.5ft 7s 6s 11 16 mph 1020.2mb 79f 64f
Sun 02/07 11:50pm 4.5ft 7s 6s 13 18 mph 1021mb 79f 63f
10:50pm 4.5ft 7s 6s 11 18 mph 1021.2mb 79f 63f
9:50pm 4.5ft 7s 6s 13 18 mph 1021.1mb 79f 63f
8:50pm 4ft 7s 5s 13 18 mph 1021mb 79f 62f
7:50pm 5ft 8s 6s 11 20 mph 1021mb 79f 62f
6:50pm 6ft 7s 6s 13 20 mph 1020.5mb 79f 62f
5:50pm 5.5ft 7s 6s 13 20 mph 1020.5mb 80f 62f
4:50pm 5.5ft 8s 6s 16 22 mph 1020.3mb 80f 62f
3:50pm 6ft 7s 6s 13 18 mph 1020.5mb 80f 62f
2:50pm 6ft 7s 5s 18 27 mph 1020.3mb 80f 62f
1:50pm 6ft 6s 5s 18 22 mph 1021.1mb 80f 62f
12:50pm 6ft 6s 5s 22 29 mph 1021.2mb 80f 62f
11:50am 6ft 7s 5s 22 31 mph 1021.9mb 80f 63f
10:50am 6ft 6s 5s 25 31 mph 1021.6mb 80f 63f
9:50am 6ft 6s 5s 27 34 mph 1021.4mb 80f 63f
8:50am 6ft 6s 5s 25 31 mph 1020.9mb 80f 63f
7:50am 5.5ft 6s 5s 27 31 mph 1020.1mb 80f 64f
6:50am 6ft 5s 5s 27 36 mph 1019.4mb 80f 64f
5:50am 7ft 6s 5s 27 34 mph 1018.7mb 80f 63f
4:50am 6ft 5s 5s 27 34 mph 1018.5mb 80f 62f
3:50am 5ft 5s 4s 31 38 mph 1018.3mb 80f 62f
2:50am 4.5ft 6s 4s 29 34 mph 1018.7mb 80f 62f
1:50am 3.5ft 7s 4s 25 31 mph 1018.8mb 80f 61f
12:50am 3.5ft 6s 4s 20 27 mph 1019.4mb 80f 62f
Sat 02/06 11:50pm 3ft 6s 4s 16 22 mph 1020mb 80f 64f
10:50pm 3ft 7s 4s 18 22 mph 1019.9mb 80f 66f
9:50pm 3ft 6s 5s 18 22 mph 1020.1mb 79f 66f
8:50pm 3ft 6s 5s 16 20 mph 1020.7mb 79f 66f
7:50pm 3.5ft 6s 5s 13 18 mph 1020.5mb 80f 66f
6:50pm 3.5ft 5s 5s 11 16 mph 1020.9mb 80f 66f
5:50pm 3ft 6s 5s 9 13 mph 1020.9mb 80f 66f
4:50pm 3ft 6s 5s 7 11 mph 1020.2mb 80f 65f
3:50pm 2.5ft 6s 5s 11 16 mph 1020.8mb 80f 65f
2:50pm 3.5ft 6s 5s 13 18 mph 1021.3mb 80f 65f
1:50pm 3.5ft 6s 5s 13 20 mph 1022.1mb 80f 65f
12:50pm 3ft 6s 5s 11 16 mph 1023.1mb 80f 65f
11:50am 3.5ft 7s 5s 9 13 mph 1023.8mb 80f 65f
10:50am 3.5ft 7s 5s 11 16 mph 1023.9mb 80f 64f
9:50am 4.5ft 6s 6s 9 13 mph 1024.3mb 80f 63f
8:50am 4ft 7s 6s 9 13 mph 1023.7mb 80f 62f
7:50am 4ft 7s 6s 9 13 mph 1023mb 80f 63f
6:50am 4.5ft 7s 6s 11 18 mph 1022.3mb 79f 63f
5:50am 4.5ft 7s 6s 9 16 mph 1022.1mb 79f 64f
4:50am 5ft 7s 6s 7 13 mph 1022.4mb 80f 64f
3:50am 5ft 8s 6s 11 18 mph 1021.9mb 80f 64f
2:50am 6ft 8s 6s 11 18 mph 1022.3mb 80f 64f
1:50am 6ft 8s 6s 11 18 mph 1023.2mb 80f 64f
12:50am 7ft 8s 6s 16 22 mph 1023mb 80f 63f
Fri 02/05 11:50pm 6.5ft 8s 6s 20 27 mph 1023.1mb 80f 63f
10:50pm 6ft 6s 6s 22 29 mph 1023.3mb 80f 63f
9:50pm 7ft 8s 6s 22 29 mph 1023.3mb 80f 63f
8:50pm 8ft 8s 6s 22 29 mph 1023.6mb 80f 63f
7:50pm 7.5ft 8s 6s 20 27 mph 1023.7mb 80f 63f
6:50pm 7ft 8s 6s 22 29 mph 1023.5mb 80f 63f
5:50pm 7ft 8s 6s 22 29 mph 1023.4mb 80f 62f
4:50pm 7.5ft 8s 6s 22 27 mph 1023.2mb 80f 62f
3:50pm 7ft 9s 6s 22 31 mph 1023.1mb 80f 62f
2:50pm 8ft 9s 6s 25 31 mph 1023.4mb 80f 62f
1:50pm 8ft 9s 6s 25 29 mph 1024.2mb 80f 62f
12:50pm 8ft 9s 6s 25 29 mph 1025.3mb 80f 62f
11:50am 8ft 9s 6s 25 31 mph 1026.1mb 80f 62f
10:50am 8ft 8s 6s 27 38 mph 1026.2mb 80f 62f
9:50am 8ft 9s 6s 29 36 mph 1025.5mb 80f 62f
8:50am 9ft 9s 6s 29 36 mph 1024.9mb 80f 62f
7:50am 8ft 8s 6s 29 38 mph 1024.2mb 79f 62f
6:50am 8ft 7s 6s 29 40 mph 1023.4mb 80f 63f
5:50am 8ft 8s 6s 29 36 mph 1023mb 80f 63f
4:50am 8ft 8s 5s 29 36 mph 1023.1mb 80f 63f
3:50am 8ft 8s 5s 31 38 mph 1022.7mb 80f 63f
2:50am 8ft 8s 5s 31 38 mph 1022.6mb 80f 64f
1:50am 7.5ft 7s 5s 29 38 mph 1022.8mb 80f 65f
12:50am 7.5ft 8s 5s 29 34 mph 1022.5mb 80f 65f
Thu 02/04 11:50pm 7ft 8s 5s 29 38 mph 1022.3mb 80f 66f
10:50pm 7ft 8s 5s 27 34 mph 1023.1mb 80f 65f